sensor_id;sensor_type;location;lat;lon;timestamp;P1;durP1;ratioP1;P2;durP2;ratioP2
17631;SDS011;8934;51.194;17.150;2023-05-29T00:01:39;4.88;;;2.97;;
17631;SDS011;8934;51.194;17.150;2023-05-29T00:04:27;4.40;;;2.88;;
17631;SDS011;8934;51.194;17.150;2023-05-29T00:07:15;7.38;;;3.25;;
17631;SDS011;8934;51.194;17.150;2023-05-29T00:10:04;4.65;;;2.60;;
17631;SDS011;8934;51.194;17.150;2023-05-29T00:12:52;6.72;;;3.08;;
17631;SDS011;8934;51.194;17.150;2023-05-29T00:15:42;5.07;;;2.80;;
17631;SDS011;8934;51.194;17.150;2023-05-29T00:18:31;7.03;;;2.85;;
17631;SDS011;8934;51.194;17.150;2023-05-29T00:21:20;5.53;;;2.92;;
17631;SDS011;8934;51.194;17.150;2023-05-29T00:24:08;5.50;;;3.08;;
17631;SDS011;8934;51.194;17.150;2023-05-29T00:26:56;5.93;;;3.45;;
17631;SDS011;8934;51.194;17.150;2023-05-29T00:29:44;4.47;;;2.80;;
17631;SDS011;8934;51.194;17.150;2023-05-29T00:32:32;4.97;;;3.30;;
17631;SDS011;8934;51.194;17.150;2023-05-29T00:35:21;4.30;;;2.72;;
17631;SDS011;8934;51.194;17.150;2023-05-29T00:38:09;5.90;;;2.60;;
17631;SDS011;8934;51.194;17.150;2023-05-29T00:40:57;7.85;;;3.17;;
17631;SDS011;8934;51.194;17.150;2023-05-29T00:43:45;4.97;;;3.05;;
17631;SDS011;8934;51.194;17.150;2023-05-29T00:46:32;6.20;;;3.00;;
17631;SDS011;8934;51.194;17.150;2023-05-29T00:49:21;5.50;;;2.58;;
17631;SDS011;8934;51.194;17.150;2023-05-29T00:52:10;4.85;;;2.30;;
17631;SDS011;8934;51.194;17.150;2023-05-29T00:54:59;4.25;;;2.22;;
17631;SDS011;8934;51.194;17.150;2023-05-29T00:57:48;4.30;;;2.90;;
17631;SDS011;8934;51.194;17.150;2023-05-29T01:00:36;5.28;;;3.05;;
17631;SDS011;8934;51.194;17.150;2023-05-29T01:03:24;4.93;;;3.22;;
17631;SDS011;8934;51.194;17.150;2023-05-29T01:06:13;6.03;;;2.72;;
17631;SDS011;8934;51.194;17.150;2023-05-29T01:09:04;4.38;;;2.45;;
17631;SDS011;8934;51.194;17.150;2023-05-29T01:11:55;4.35;;;3.08;;
17631;SDS011;8934;51.194;17.150;2023-05-29T01:14:53;5.38;;;2.60;;
17631;SDS011;8934;51.194;17.150;2023-05-29T01:17:54;4.25;;;2.40;;
17631;SDS011;8934;51.194;17.150;2023-05-29T01:21:08;4.90;;;2.60;;
17631;SDS011;8934;51.194;17.150;2023-05-29T01:24:07;6.57;;;3.17;;
17631;SDS011;8934;51.194;17.150;2023-05-29T01:27:04;5.07;;;2.67;;
17631;SDS011;8934;51.194;17.150;2023-05-29T01:29:56;7.45;;;2.53;;
17631;SDS011;8934;51.194;17.150;2023-05-29T01:32:47;6.07;;;2.85;;
17631;SDS011;8934;51.194;17.150;2023-05-29T01:35:36;4.53;;;2.80;;
17631;SDS011;8934;51.194;17.150;2023-05-29T01:38:23;5.05;;;2.50;;
17631;SDS011;8934;51.194;17.150;2023-05-29T01:41:10;4.80;;;2.83;;
17631;SDS011;8934;51.194;17.150;2023-05-29T01:44:01;5.47;;;2.80;;
17631;SDS011;8934;51.194;17.150;2023-05-29T01:46:50;6.40;;;2.90;;
17631;SDS011;8934;51.194;17.150;2023-05-29T01:49:39;5.32;;;2.80;;
17631;SDS011;8934;51.194;17.150;2023-05-29T01:52:28;4.45;;;2.47;;
17631;SDS011;8934;51.194;17.150;2023-05-29T01:55:16;3.65;;;2.15;;
17631;SDS011;8934;51.194;17.150;2023-05-29T01:58:03;4.15;;;2.72;;
17631;SDS011;8934;51.194;17.150;2023-05-29T02:00:54;5.28;;;2.50;;
17631;SDS011;8934;51.194;17.150;2023-05-29T02:03:42;5.53;;;2.78;;
17631;SDS011;8934;51.194;17.150;2023-05-29T02:06:30;5.05;;;3.13;;
17631;SDS011;8934;51.194;17.150;2023-05-29T02:09:19;4.53;;;2.50;;
17631;SDS011;8934;51.194;17.150;2023-05-29T02:12:08;4.70;;;2.83;;
17631;SDS011;8934;51.194;17.150;2023-05-29T02:14:56;3.83;;;2.63;;
17631;SDS011;8934;51.194;17.150;2023-05-29T02:17:46;5.38;;;2.60;;
17631;SDS011;8934;51.194;17.150;2023-05-29T02:20:34;4.47;;;2.70;;
17631;SDS011;8934;51.194;17.150;2023-05-29T02:23:22;5.88;;;2.35;;
17631;SDS011;8934;51.194;17.150;2023-05-29T02:26:11;4.07;;;2.65;;
17631;SDS011;8934;51.194;17.150;2023-05-29T02:29:00;5.57;;;2.72;;
17631;SDS011;8934;51.194;17.150;2023-05-29T02:31:48;4.53;;;2.85;;
17631;SDS011;8934;51.194;17.150;2023-05-29T02:34:37;5.90;;;2.78;;
17631;SDS011;8934;51.194;17.150;2023-05-29T02:37:25;6.00;;;2.85;;
17631;SDS011;8934;51.194;17.150;2023-05-29T02:40:13;3.95;;;2.80;;
17631;SDS011;8934;51.194;17.150;2023-05-29T02:43:01;6.43;;;2.40;;
17631;SDS011;8934;51.194;17.150;2023-05-29T02:45:49;5.38;;;2.70;;
17631;SDS011;8934;51.194;17.150;2023-05-29T02:48:37;4.47;;;2.78;;
17631;SDS011;8934;51.194;17.150;2023-05-29T02:51:26;3.97;;;2.22;;
17631;SDS011;8934;51.194;17.150;2023-05-29T02:54:14;5.15;;;2.78;;
17631;SDS011;8934;51.194;17.150;2023-05-29T02:57:01;5.75;;;2.53;;
17631;SDS011;8934;51.194;17.150;2023-05-29T02:59:50;5.82;;;2.42;;
17631;SDS011;8934;51.194;17.150;2023-05-29T03:02:38;4.88;;;2.78;;
17631;SDS011;8934;51.194;17.150;2023-05-29T03:05:26;5.40;;;2.75;;
17631;SDS011;8934;51.194;17.150;2023-05-29T03:08:14;3.95;;;2.47;;
17631;SDS011;8934;51.194;17.150;2023-05-29T03:11:03;4.15;;;2.85;;
17631;SDS011;8934;51.194;17.150;2023-05-29T03:13:51;5.05;;;2.70;;
17631;SDS011;8934;51.194;17.150;2023-05-29T03:16:39;5.55;;;2.58;;
17631;SDS011;8934;51.194;17.150;2023-05-29T03:19:27;4.30;;;2.47;;
17631;SDS011;8934;51.194;17.150;2023-05-29T03:22:15;5.90;;;2.30;;
17631;SDS011;8934;51.194;17.150;2023-05-29T03:25:04;4.63;;;2.60;;
17631;SDS011;8934;51.194;17.150;2023-05-29T03:27:53;3.75;;;2.25;;
17631;SDS011;8934;51.194;17.150;2023-05-29T03:30:41;3.80;;;2.33;;
17631;SDS011;8934;51.194;17.150;2023-05-29T03:33:32;4.28;;;2.40;;
17631;SDS011;8934;51.194;17.150;2023-05-29T03:36:31;6.28;;;2.13;;
17631;SDS011;8934;51.194;17.150;2023-05-29T03:39:22;6.55;;;2.60;;
17631;SDS011;8934;51.194;17.150;2023-05-29T03:42:12;7.13;;;2.90;;
17631;SDS011;8934;51.194;17.150;2023-05-29T03:45:00;4.70;;;2.88;;
17631;SDS011;8934;51.194;17.150;2023-05-29T03:47:50;5.00;;;2.58;;
17631;SDS011;8934;51.194;17.150;2023-05-29T03:50:38;6.07;;;2.38;;
17631;SDS011;8934;51.194;17.150;2023-05-29T03:53:26;6.88;;;2.95;;
17631;SDS011;8934;51.194;17.150;2023-05-29T03:56:14;5.85;;;2.97;;
17631;SDS011;8934;51.194;17.150;2023-05-29T03:59:03;4.05;;;2.72;;
17631;SDS011;8934;51.194;17.150;2023-05-29T04:01:50;7.35;;;3.30;;
17631;SDS011;8934;51.194;17.150;2023-05-29T04:04:38;5.63;;;3.53;;
17631;SDS011;8934;51.194;17.150;2023-05-29T04:07:26;5.38;;;3.20;;
17631;SDS011;8934;51.194;17.150;2023-05-29T04:10:13;5.78;;;3.00;;
17631;SDS011;8934;51.194;17.150;2023-05-29T04:13:01;6.63;;;2.97;;
17631;SDS011;8934;51.194;17.150;2023-05-29T04:15:50;6.68;;;3.33;;
17631;SDS011;8934;51.194;17.150;2023-05-29T04:18:40;5.00;;;3.00;;
17631;SDS011;8934;51.194;17.150;2023-05-29T04:21:28;7.65;;;3.17;;
17631;SDS011;8934;51.194;17.150;2023-05-29T04:24:18;5.82;;;2.97;;
17631;SDS011;8934;51.194;17.150;2023-05-29T04:27:06;4.97;;;3.28;;
17631;SDS011;8934;51.194;17.150;2023-05-29T04:29:54;7.60;;;3.35;;
17631;SDS011;8934;51.194;17.150;2023-05-29T04:32:44;6.18;;;3.60;;
17631;SDS011;8934;51.194;17.150;2023-05-29T04:35:34;5.47;;;3.53;;
17631;SDS011;8934;51.194;17.150;2023-05-29T04:38:25;7.32;;;4.32;;
17631;SDS011;8934;51.194;17.150;2023-05-29T04:41:14;4.68;;;2.97;;
17631;SDS011;8934;51.194;17.150;2023-05-29T04:44:03;6.25;;;3.70;;
17631;SDS011;8934;51.194;17.150;2023-05-29T04:46:59;7.40;;;3.72;;
17631;SDS011;8934;51.194;17.150;2023-05-29T04:49:50;7.68;;;3.70;;
17631;SDS011;8934;51.194;17.150;2023-05-29T04:52:38;7.65;;;3.80;;
17631;SDS011;8934;51.194;17.150;2023-05-29T04:55:27;7.53;;;3.78;;
17631;SDS011;8934;51.194;17.150;2023-05-29T04:58:15;6.82;;;4.40;;
17631;SDS011;8934;51.194;17.150;2023-05-29T05:01:02;7.70;;;4.40;;
17631;SDS011;8934;51.194;17.150;2023-05-29T05:03:51;9.20;;;4.75;;
17631;SDS011;8934;51.194;17.150;2023-05-29T05:06:43;9.85;;;4.55;;
17631;SDS011;8934;51.194;17.150;2023-05-29T05:09:30;6.70;;;4.20;;
17631;SDS011;8934;51.194;17.150;2023-05-29T05:12:20;7.05;;;4.53;;
17631;SDS011;8934;51.194;17.150;2023-05-29T05:15:08;8.52;;;3.58;;
17631;SDS011;8934;51.194;17.150;2023-05-29T05:17:56;9.43;;;4.05;;
17631;SDS011;8934;51.194;17.150;2023-05-29T05:20:44;7.18;;;3.92;;
17631;SDS011;8934;51.194;17.150;2023-05-29T05:23:34;9.63;;;3.83;;
17631;SDS011;8934;51.194;17.150;2023-05-29T05:26:41;6.50;;;3.45;;
17631;SDS011;8934;51.194;17.150;2023-05-29T05:29:29;5.68;;;3.90;;
17631;SDS011;8934;51.194;17.150;2023-05-29T05:32:17;8.20;;;3.55;;
17631;SDS011;8934;51.194;17.150;2023-05-29T05:35:10;6.80;;;3.65;;
17631;SDS011;8934;51.194;17.150;2023-05-29T05:37:58;7.65;;;3.45;;
17631;SDS011;8934;51.194;17.150;2023-05-29T05:40:48;8.60;;;3.50;;
17631;SDS011;8934;51.194;17.150;2023-05-29T05:43:42;7.38;;;4.40;;
17631;SDS011;8934;51.194;17.150;2023-05-29T05:46:40;6.07;;;3.72;;
17631;SDS011;8934;51.194;17.150;2023-05-29T05:49:28;5.90;;;3.03;;
17631;SDS011;8934;51.194;17.150;2023-05-29T05:52:15;5.97;;;3.38;;
17631;SDS011;8934;51.194;17.150;2023-05-29T05:55:04;8.57;;;3.40;;
17631;SDS011;8934;51.194;17.150;2023-05-29T05:57:53;9.60;;;3.70;;
17631;SDS011;8934;51.194;17.150;2023-05-29T06:00:42;9.98;;;3.30;;
17631;SDS011;8934;51.194;17.150;2023-05-29T06:03:30;5.85;;;2.83;;
17631;SDS011;8934;51.194;17.150;2023-05-29T06:06:21;4.15;;;2.45;;
17631;SDS011;8934;51.194;17.150;2023-05-29T06:09:09;4.75;;;2.83;;
17631;SDS011;8934;51.194;17.150;2023-05-29T06:11:57;4.82;;;2.97;;
17631;SDS011;8934;51.194;17.150;2023-05-29T06:14:48;10.80;;;3.75;;
17631;SDS011;8934;51.194;17.150;2023-05-29T06:17:36;6.18;;;3.50;;
17631;SDS011;8934;51.194;17.150;2023-05-29T06:20:26;4.88;;;2.70;;
17631;SDS011;8934;51.194;17.150;2023-05-29T06:23:14;5.95;;;3.10;;
17631;SDS011;8934;51.194;17.150;2023-05-29T06:26:02;5.53;;;3.05;;
17631;SDS011;8934;51.194;17.150;2023-05-29T06:28:50;6.85;;;2.80;;
17631;SDS011;8934;51.194;17.150;2023-05-29T06:31:39;4.95;;;2.22;;
17631;SDS011;8934;51.194;17.150;2023-05-29T06:34:27;4.47;;;2.33;;
17631;SDS011;8934;51.194;17.150;2023-05-29T06:37:15;4.78;;;2.90;;
17631;SDS011;8934;51.194;17.150;2023-05-29T06:40:03;5.63;;;2.83;;
17631;SDS011;8934;51.194;17.150;2023-05-29T06:42:52;6.18;;;3.20;;
17631;SDS011;8934;51.194;17.150;2023-05-29T06:45:54;5.93;;;2.50;;
17631;SDS011;8934;51.194;17.150;2023-05-29T06:48:43;6.07;;;3.00;;
17631;SDS011;8934;51.194;17.150;2023-05-29T06:51:32;4.95;;;2.85;;
17631;SDS011;8934;51.194;17.150;2023-05-29T06:54:40;6.30;;;2.85;;
17631;SDS011;8934;51.194;17.150;2023-05-29T06:57:28;5.40;;;3.42;;
17631;SDS011;8934;51.194;17.150;2023-05-29T07:00:16;5.30;;;2.60;;
17631;SDS011;8934;51.194;17.150;2023-05-29T07:03:14;5.10;;;2.50;;
17631;SDS011;8934;51.194;17.150;2023-05-29T07:06:04;7.65;;;2.80;;
17631;SDS011;8934;51.194;17.150;2023-05-29T07:08:53;4.97;;;2.42;;
17631;SDS011;8934;51.194;17.150;2023-05-29T07:11:42;5.25;;;3.00;;
17631;SDS011;8934;51.194;17.150;2023-05-29T07:14:29;4.55;;;2.50;;
17631;SDS011;8934;51.194;17.150;2023-05-29T07:17:17;6.00;;;2.65;;
17631;SDS011;8934;51.194;17.150;2023-05-29T07:20:09;6.05;;;2.35;;
17631;SDS011;8934;51.194;17.150;2023-05-29T07:23:00;4.85;;;2.15;;
17631;SDS011;8934;51.194;17.150;2023-05-29T07:25:48;7.53;;;2.20;;
17631;SDS011;8934;51.194;17.150;2023-05-29T07:28:35;2.85;;;1.77;;
17631;SDS011;8934;51.194;17.150;2023-05-29T07:31:23;2.88;;;1.70;;
17631;SDS011;8934;51.194;17.150;2023-05-29T07:34:11;3.25;;;1.70;;
17631;SDS011;8934;51.194;17.150;2023-05-29T07:37:00;7.65;;;2.30;;
17631;SDS011;8934;51.194;17.150;2023-05-29T07:39:51;4.30;;;1.60;;
17631;SDS011;8934;51.194;17.150;2023-05-29T07:42:57;4.07;;;1.67;;
17631;SDS011;8934;51.194;17.150;2023-05-29T07:45:56;3.63;;;1.50;;
17631;SDS011;8934;51.194;17.150;2023-05-29T07:48:44;6.63;;;2.03;;
17631;SDS011;8934;51.194;17.150;2023-05-29T07:51:32;8.25;;;1.80;;
17631;SDS011;8934;51.194;17.150;2023-05-29T07:54:20;3.25;;;1.52;;
17631;SDS011;8934;51.194;17.150;2023-05-29T07:57:10;2.63;;;1.30;;
17631;SDS011;8934;51.194;17.150;2023-05-29T08:00:00;5.57;;;1.70;;
17631;SDS011;8934;51.194;17.150;2023-05-29T08:03:04;2.33;;;1.40;;
17631;SDS011;8934;51.194;17.150;2023-05-29T08:05:51;3.38;;;1.60;;
17631;SDS011;8934;51.194;17.150;2023-05-29T08:08:40;5.30;;;1.73;;
17631;SDS011;8934;51.194;17.150;2023-05-29T08:11:28;3.63;;;1.30;;
17631;SDS011;8934;51.194;17.150;2023-05-29T08:14:18;2.70;;;1.40;;
17631;SDS011;8934;51.194;17.150;2023-05-29T08:17:06;4.68;;;1.63;;
17631;SDS011;8934;51.194;17.150;2023-05-29T08:19:53;3.58;;;1.58;;
17631;SDS011;8934;51.194;17.150;2023-05-29T08:22:41;3.80;;;1.58;;
17631;SDS011;8934;51.194;17.150;2023-05-29T08:25:29;4.20;;;1.35;;
17631;SDS011;8934;51.194;17.150;2023-05-29T08:28:17;4.53;;;1.10;;
17631;SDS011;8934;51.194;17.150;2023-05-29T08:31:06;3.25;;;1.73;;
17631;SDS011;8934;51.194;17.150;2023-05-29T08:33:54;5.30;;;1.80;;
17631;SDS011;8934;51.194;17.150;2023-05-29T08:36:42;4.57;;;1.90;;
17631;SDS011;8934;51.194;17.150;2023-05-29T08:39:31;6.45;;;1.80;;
17631;SDS011;8934;51.194;17.150;2023-05-29T08:42:20;5.53;;;1.73;;
17631;SDS011;8934;51.194;17.150;2023-05-29T08:45:15;3.70;;;1.92;;
17631;SDS011;8934;51.194;17.150;2023-05-29T08:48:07;4.80;;;2.70;;
17631;SDS011;8934;51.194;17.150;2023-05-29T08:50:57;3.80;;;2.05;;
17631;SDS011;8934;51.194;17.150;2023-05-29T08:53:46;4.50;;;1.98;;
17631;SDS011;8934;51.194;17.150;2023-05-29T08:56:34;3.33;;;2.10;;
17631;SDS011;8934;51.194;17.150;2023-05-29T08:59:22;5.25;;;2.50;;
17631;SDS011;8934;51.194;17.150;2023-05-29T09:02:10;4.50;;;1.90;;
17631;SDS011;8934;51.194;17.150;2023-05-29T09:05:00;5.40;;;2.58;;
17631;SDS011;8934;51.194;17.150;2023-05-29T09:07:48;3.65;;;1.90;;
17631;SDS011;8934;51.194;17.150;2023-05-29T09:10:36;5.18;;;2.35;;
17631;SDS011;8934;51.194;17.150;2023-05-29T09:13:25;4.90;;;2.17;;
17631;SDS011;8934;51.194;17.150;2023-05-29T09:16:14;4.10;;;2.40;;
17631;SDS011;8934;51.194;17.150;2023-05-29T09:19:06;5.93;;;2.20;;
17631;SDS011;8934;51.194;17.150;2023-05-29T09:22:04;3.40;;;2.00;;
17631;SDS011;8934;51.194;17.150;2023-05-29T09:24:53;5.60;;;1.98;;
17631;SDS011;8934;51.194;17.150;2023-05-29T09:27:41;5.03;;;2.22;;
17631;SDS011;8934;51.194;17.150;2023-05-29T09:30:33;5.25;;;2.35;;
17631;SDS011;8934;51.194;17.150;2023-05-29T09:33:21;5.22;;;2.20;;
17631;SDS011;8934;51.194;17.150;2023-05-29T09:36:11;3.92;;;1.90;;
17631;SDS011;8934;51.194;17.150;2023-05-29T09:39:08;3.33;;;2.13;;
17631;SDS011;8934;51.194;17.150;2023-05-29T09:42:03;2.70;;;2.05;;
17631;SDS011;8934;51.194;17.150;2023-05-29T09:44:52;2.83;;;1.92;;
17631;SDS011;8934;51.194;17.150;2023-05-29T09:47:40;3.42;;;1.95;;
17631;SDS011;8934;51.194;17.150;2023-05-29T09:50:27;3.05;;;1.95;;
17631;SDS011;8934;51.194;17.150;2023-05-29T09:53:16;9.07;;;2.83;;
17631;SDS011;8934;51.194;17.150;2023-05-29T09:56:11;5.43;;;2.30;;
17631;SDS011;8934;51.194;17.150;2023-05-29T09:59:01;6.00;;;2.10;;
17631;SDS011;8934;51.194;17.150;2023-05-29T10:01:49;4.88;;;2.22;;
17631;SDS011;8934;51.194;17.150;2023-05-29T10:04:45;8.88;;;2.58;;
17631;SDS011;8934;51.194;17.150;2023-05-29T10:07:35;5.57;;;2.10;;
17631;SDS011;8934;51.194;17.150;2023-05-29T10:10:23;4.22;;;1.63;;
17631;SDS011;8934;51.194;17.150;2023-05-29T10:13:14;4.13;;;1.80;;
17631;SDS011;8934;51.194;17.150;2023-05-29T10:16:04;3.13;;;1.80;;
17631;SDS011;8934;51.194;17.150;2023-05-29T10:18:55;5.20;;;2.20;;
17631;SDS011;8934;51.194;17.150;2023-05-29T10:21:45;5.88;;;2.30;;
17631;SDS011;8934;51.194;17.150;2023-05-29T10:24:33;4.65;;;1.85;;
17631;SDS011;8934;51.194;17.150;2023-05-29T10:27:24;5.60;;;1.80;;
17631;SDS011;8934;51.194;17.150;2023-05-29T10:30:16;5.80;;;2.08;;
17631;SDS011;8934;51.194;17.150;2023-05-29T10:33:20;5.55;;;1.92;;
17631;SDS011;8934;51.194;17.150;2023-05-29T10:36:22;2.80;;;1.77;;
17631;SDS011;8934;51.194;17.150;2023-05-29T10:39:12;5.03;;;1.85;;
17631;SDS011;8934;51.194;17.150;2023-05-29T10:42:00;7.53;;;2.88;;
17631;SDS011;8934;51.194;17.150;2023-05-29T10:44:48;2.63;;;2.10;;
17631;SDS011;8934;51.194;17.150;2023-05-29T10:47:36;4.13;;;1.58;;
17631;SDS011;8934;51.194;17.150;2023-05-29T10:50:34;2.95;;;1.90;;
17631;SDS011;8934;51.194;17.150;2023-05-29T10:53:24;3.00;;;1.80;;
17631;SDS011;8934;51.194;17.150;2023-05-29T10:56:20;5.43;;;1.90;;
17631;SDS011;8934;51.194;17.150;2023-05-29T10:59:09;7.70;;;2.03;;
17631;SDS011;8934;51.194;17.150;2023-05-29T11:01:57;3.78;;;2.10;;
17631;SDS011;8934;51.194;17.150;2023-05-29T11:08:04;4.30;;;1.70;;
17631;SDS011;8934;51.194;17.150;2023-05-29T11:10:56;3.40;;;2.10;;
17631;SDS011;8934;51.194;17.150;2023-05-29T11:13:51;5.80;;;2.10;;
17631;SDS011;8934;51.194;17.150;2023-05-29T11:16:39;4.88;;;2.20;;
17631;SDS011;8934;51.194;17.150;2023-05-29T11:19:28;9.65;;;2.55;;
17631;SDS011;8934;51.194;17.150;2023-05-29T11:22:18;7.95;;;2.22;;
17631;SDS011;8934;51.194;17.150;2023-05-29T11:25:10;3.22;;;1.88;;
17631;SDS011;8934;51.194;17.150;2023-05-29T11:28:00;4.13;;;2.25;;
17631;SDS011;8934;51.194;17.150;2023-05-29T11:33:47;4.28;;;2.00;;
17631;SDS011;8934;51.194;17.150;2023-05-29T11:36:36;5.15;;;2.63;;
17631;SDS011;8934;51.194;17.150;2023-05-29T11:39:24;5.15;;;2.33;;
17631;SDS011;8934;51.194;17.150;2023-05-29T11:42:12;3.05;;;1.90;;
17631;SDS011;8934;51.194;17.150;2023-05-29T11:45:10;2.80;;;2.05;;
17631;SDS011;8934;51.194;17.150;2023-05-29T11:48:01;4.65;;;1.88;;
17631;SDS011;8934;51.194;17.150;2023-05-29T11:50:50;3.60;;;2.42;;
17631;SDS011;8934;51.194;17.150;2023-05-29T11:53:39;2.65;;;2.33;;
17631;SDS011;8934;51.194;17.150;2023-05-29T11:56:28;4.72;;;2.20;;
17631;SDS011;8934;51.194;17.150;2023-05-29T11:59:16;3.10;;;1.70;;
17631;SDS011;8934;51.194;17.150;2023-05-29T12:02:03;4.45;;;1.83;;
17631;SDS011;8934;51.194;17.150;2023-05-29T12:05:00;3.92;;;2.00;;
17631;SDS011;8934;51.194;17.150;2023-05-29T12:07:49;13.65;;;2.65;;
17631;SDS011;8934;51.194;17.150;2023-05-29T12:10:40;3.38;;;2.33;;
17631;SDS011;8934;51.194;17.150;2023-05-29T12:16:22;2.92;;;1.60;;
17631;SDS011;8934;51.194;17.150;2023-05-29T12:19:11;4.63;;;2.33;;
17631;SDS011;8934;51.194;17.150;2023-05-29T12:22:01;4.70;;;2.03;;
17631;SDS011;8934;51.194;17.150;2023-05-29T12:24:48;7.00;;;2.67;;
17631;SDS011;8934;51.194;17.150;2023-05-29T12:27:37;4.30;;;2.05;;
17631;SDS011;8934;51.194;17.150;2023-05-29T12:30:28;5.97;;;2.13;;
17631;SDS011;8934;51.194;17.150;2023-05-29T12:33:25;14.75;;;2.38;;
17631;SDS011;8934;51.194;17.150;2023-05-29T12:36:16;4.60;;;2.22;;
17631;SDS011;8934;51.194;17.150;2023-05-29T12:39:06;5.82;;;2.08;;
17631;SDS011;8934;51.194;17.150;2023-05-29T12:41:55;4.75;;;2.08;;
17631;SDS011;8934;51.194;17.150;2023-05-29T12:44:42;5.60;;;1.90;;
17631;SDS011;8934;51.194;17.150;2023-05-29T12:47:30;4.20;;;2.35;;
17631;SDS011;8934;51.194;17.150;2023-05-29T12:50:20;4.45;;;2.03;;
17631;SDS011;8934;51.194;17.150;2023-05-29T12:53:09;4.13;;;2.20;;
17631;SDS011;8934;51.194;17.150;2023-05-29T12:55:59;3.38;;;2.00;;
17631;SDS011;8934;51.194;17.150;2023-05-29T12:58:50;7.43;;;2.63;;
17631;SDS011;8934;51.194;17.150;2023-05-29T13:01:38;3.05;;;1.95;;
17631;SDS011;8934;51.194;17.150;2023-05-29T13:04:26;2.90;;;1.80;;
17631;SDS011;8934;51.194;17.150;2023-05-29T13:07:14;3.53;;;1.92;;
17631;SDS011;8934;51.194;17.150;2023-05-29T13:10:01;3.78;;;2.00;;
17631;SDS011;8934;51.194;17.150;2023-05-29T13:12:51;5.35;;;2.15;;
17631;SDS011;8934;51.194;17.150;2023-05-29T13:15:40;5.85;;;2.47;;
17631;SDS011;8934;51.194;17.150;2023-05-29T13:18:28;3.63;;;2.08;;
17631;SDS011;8934;51.194;17.150;2023-05-29T13:21:15;5.63;;;2.45;;
17631;SDS011;8934;51.194;17.150;2023-05-29T13:24:02;4.43;;;2.10;;
17631;SDS011;8934;51.194;17.150;2023-05-29T13:26:50;6.00;;;2.00;;
17631;SDS011;8934;51.194;17.150;2023-05-29T13:29:39;5.47;;;2.17;;
17631;SDS011;8934;51.194;17.150;2023-05-29T13:32:27;3.60;;;2.03;;
17631;SDS011;8934;51.194;17.150;2023-05-29T13:35:14;7.35;;;2.30;;
17631;SDS011;8934;51.194;17.150;2023-05-29T13:38:02;4.25;;;1.92;;
17631;SDS011;8934;51.194;17.150;2023-05-29T13:40:50;11.05;;;3.22;;
17631;SDS011;8934;51.194;17.150;2023-05-29T13:43:37;9.07;;;2.50;;
17631;SDS011;8934;51.194;17.150;2023-05-29T13:46:31;9.57;;;2.50;;
17631;SDS011;8934;51.194;17.150;2023-05-29T13:49:18;4.25;;;2.20;;
17631;SDS011;8934;51.194;17.150;2023-05-29T13:52:06;5.47;;;2.33;;
17631;SDS011;8934;51.194;17.150;2023-05-29T13:54:53;5.97;;;2.38;;
17631;SDS011;8934;51.194;17.150;2023-05-29T13:57:43;4.70;;;2.13;;
17631;SDS011;8934;51.194;17.150;2023-05-29T14:00:31;9.75;;;2.72;;
17631;SDS011;8934;51.194;17.150;2023-05-29T14:03:20;3.67;;;2.20;;
17631;SDS011;8934;51.194;17.150;2023-05-29T14:06:10;6.63;;;2.10;;
17631;SDS011;8934;51.194;17.150;2023-05-29T14:08:57;3.15;;;1.88;;
17631;SDS011;8934;51.194;17.150;2023-05-29T14:11:45;3.00;;;1.90;;
17631;SDS011;8934;51.194;17.150;2023-05-29T14:14:35;2.88;;;2.15;;
17631;SDS011;8934;51.194;17.150;2023-05-29T14:17:23;13.70;;;2.63;;
17631;SDS011;8934;51.194;17.150;2023-05-29T14:20:13;5.13;;;2.22;;
17631;SDS011;8934;51.194;17.150;2023-05-29T14:23:01;5.18;;;2.40;;
17631;SDS011;8934;51.194;17.150;2023-05-29T14:25:48;6.28;;;2.50;;
17631;SDS011;8934;51.194;17.150;2023-05-29T14:28:37;4.35;;;2.38;;
17631;SDS011;8934;51.194;17.150;2023-05-29T14:31:25;3.53;;;2.10;;
17631;SDS011;8934;51.194;17.150;2023-05-29T14:34:13;3.30;;;2.05;;
17631;SDS011;8934;51.194;17.150;2023-05-29T14:37:02;2.80;;;1.85;;
17631;SDS011;8934;51.194;17.150;2023-05-29T14:39:49;6.05;;;2.45;;
17631;SDS011;8934;51.194;17.150;2023-05-29T14:42:37;4.78;;;2.40;;
17631;SDS011;8934;51.194;17.150;2023-05-29T14:45:24;4.28;;;2.65;;
17631;SDS011;8934;51.194;17.150;2023-05-29T14:48:12;6.20;;;2.33;;
17631;SDS011;8934;51.194;17.150;2023-05-29T14:51:02;4.05;;;2.53;;
17631;SDS011;8934;51.194;17.150;2023-05-29T14:53:51;5.50;;;2.28;;
17631;SDS011;8934;51.194;17.150;2023-05-29T14:56:38;4.22;;;2.38;;
17631;SDS011;8934;51.194;17.150;2023-05-29T14:59:26;9.35;;;2.53;;
17631;SDS011;8934;51.194;17.150;2023-05-29T15:02:13;3.10;;;2.45;;
17631;SDS011;8934;51.194;17.150;2023-05-29T15:05:01;24.75;;;4.25;;
17631;SDS011;8934;51.194;17.150;2023-05-29T15:07:48;6.90;;;2.65;;
17631;SDS011;8934;51.194;17.150;2023-05-29T15:10:37;4.55;;;2.63;;
17631;SDS011;8934;51.194;17.150;2023-05-29T15:13:25;3.72;;;2.03;;
17631;SDS011;8934;51.194;17.150;2023-05-29T15:16:12;4.75;;;2.65;;
17631;SDS011;8934;51.194;17.150;2023-05-29T15:19:00;4.53;;;2.75;;
17631;SDS011;8934;51.194;17.150;2023-05-29T15:21:47;5.07;;;2.63;;
17631;SDS011;8934;51.194;17.150;2023-05-29T15:24:35;5.43;;;2.72;;
17631;SDS011;8934;51.194;17.150;2023-05-29T15:27:24;6.97;;;3.10;;
17631;SDS011;8934;51.194;17.150;2023-05-29T15:30:17;6.35;;;3.08;;
17631;SDS011;8934;51.194;17.150;2023-05-29T15:33:05;6.43;;;3.38;;
17631;SDS011;8934;51.194;17.150;2023-05-29T15:35:55;4.82;;;3.00;;
17631;SDS011;8934;51.194;17.150;2023-05-29T15:38:42;5.97;;;3.30;;
17631;SDS011;8934;51.194;17.150;2023-05-29T15:41:30;6.00;;;3.05;;
17631;SDS011;8934;51.194;17.150;2023-05-29T15:44:18;4.20;;;2.75;;
17631;SDS011;8934;51.194;17.150;2023-05-29T15:47:06;6.07;;;3.05;;
17631;SDS011;8934;51.194;17.150;2023-05-29T15:49:54;7.47;;;2.95;;
17631;SDS011;8934;51.194;17.150;2023-05-29T15:52:41;9.27;;;3.47;;
17631;SDS011;8934;51.194;17.150;2023-05-29T15:55:40;7.22;;;2.78;;
17631;SDS011;8934;51.194;17.150;2023-05-29T15:58:28;8.38;;;3.28;;
17631;SDS011;8934;51.194;17.150;2023-05-29T16:01:17;4.88;;;2.58;;
17631;SDS011;8934;51.194;17.150;2023-05-29T16:04:05;6.53;;;3.05;;
17631;SDS011;8934;51.194;17.150;2023-05-29T16:06:53;4.68;;;3.20;;
17631;SDS011;8934;51.194;17.150;2023-05-29T16:09:41;8.02;;;3.20;;
17631;SDS011;8934;51.194;17.150;2023-05-29T16:12:29;7.03;;;3.20;;
17631;SDS011;8934;51.194;17.150;2023-05-29T16:15:17;11.48;;;3.47;;
17631;SDS011;8934;51.194;17.150;2023-05-29T16:18:07;6.55;;;3.13;;
17631;SDS011;8934;51.194;17.150;2023-05-29T16:20:54;3.97;;;2.95;;
17631;SDS011;8934;51.194;17.150;2023-05-29T16:23:42;6.03;;;3.10;;
17631;SDS011;8934;51.194;17.150;2023-05-29T16:26:30;6.13;;;3.10;;
17631;SDS011;8934;51.194;17.150;2023-05-29T16:29:21;12.93;;;4.22;;
17631;SDS011;8934;51.194;17.150;2023-05-29T16:32:09;4.45;;;2.97;;
17631;SDS011;8934;51.194;17.150;2023-05-29T16:34:58;10.15;;;3.53;;
17631;SDS011;8934;51.194;17.150;2023-05-29T16:37:46;7.47;;;3.50;;
17631;SDS011;8934;51.194;17.150;2023-05-29T16:40:33;10.48;;;3.40;;
17631;SDS011;8934;51.194;17.150;2023-05-29T16:43:21;9.88;;;3.80;;
17631;SDS011;8934;51.194;17.150;2023-05-29T16:46:09;8.48;;;3.78;;
17631;SDS011;8934;51.194;17.150;2023-05-29T16:48:56;12.15;;;4.32;;
17631;SDS011;8934;51.194;17.150;2023-05-29T16:51:45;6.05;;;3.35;;
17631;SDS011;8934;51.194;17.150;2023-05-29T16:54:33;5.70;;;3.38;;
17631;SDS011;8934;51.194;17.150;2023-05-29T16:57:24;9.15;;;3.55;;
17631;SDS011;8934;51.194;17.150;2023-05-29T17:00:12;8.40;;;3.35;;
17631;SDS011;8934;51.194;17.150;2023-05-29T17:03:00;13.32;;;3.95;;
17631;SDS011;8934;51.194;17.150;2023-05-29T17:05:49;7.32;;;3.80;;
17631;SDS011;8934;51.194;17.150;2023-05-29T17:08:38;6.85;;;3.85;;
17631;SDS011;8934;51.194;17.150;2023-05-29T17:11:26;6.05;;;3.60;;